createdAt,value
2016-07-20T00:00:48.193Z,19.78
2016-07-20T00:01:48.188Z,19.85
2016-07-20T00:02:48.201Z,19.85
2016-07-20T00:03:48.200Z,19.85
2016-07-20T00:04:48.201Z,19.78
2016-07-20T00:05:48.209Z,19.84
2016-07-20T00:06:47.480Z,19.81
2016-07-20T00:07:48.204Z,19.66
2016-07-20T00:08:48.209Z,19.71
2016-07-20T00:09:48.216Z,19.78
2016-07-20T00:10:48.209Z,19.7
2016-07-20T00:11:48.212Z,19.71
2016-07-20T00:12:48.216Z,19.72
2016-07-20T00:13:48.216Z,19.71
2016-07-20T00:14:48.221Z,19.6
2016-07-20T00:15:48.221Z,19.7
2016-07-20T00:16:48.220Z,19.59
2016-07-20T00:19:40.209Z,19.6
2016-07-20T00:20:40.924Z,19.59
2016-07-20T00:21:40.933Z,19.63
2016-07-20T00:22:40.933Z,19.53
2016-07-20T00:23:40.932Z,19.45
2016-07-20T00:24:40.937Z,19.47
2016-07-20T00:25:40.941Z,19.48
2016-07-20T00:26:40.941Z,19.45
2016-07-20T00:27:40.945Z,19.45
2016-07-20T00:28:40.949Z,19.45
2016-07-20T00:29:40.950Z,19.35
2016-07-20T00:30:40.949Z,19.32
2016-07-20T00:31:40.949Z,19.27
2016-07-20T00:32:40.953Z,19.32
2016-07-20T00:33:40.954Z,19.27
2016-07-20T00:34:41.258Z,19.32
2016-07-20T00:35:40.958Z,19.26
2016-07-20T00:36:40.962Z,19.22
2016-07-20T00:37:40.966Z,19.17
2016-07-20T00:38:40.963Z,19.16
2016-07-20T00:39:40.962Z,19.05
2016-07-20T00:40:40.966Z,19.11
2016-07-20T00:41:40.971Z,18.98
2016-07-20T00:42:40.970Z,19.05
2016-07-20T00:43:40.974Z,19.05
2016-07-20T00:44:40.974Z,18.96
2016-07-20T00:45:40.975Z,18.89
2016-07-20T00:46:40.978Z,18.98
2016-07-20T00:47:40.982Z,18.91
2016-07-20T00:48:40.982Z,18.97
2016-07-20T00:49:40.982Z,18.94
2016-07-20T00:50:40.982Z,18.86
2016-07-20T00:51:40.986Z,18.86
2016-07-20T00:52:40.987Z,18.88
2016-07-20T00:53:40.991Z,18.78
2016-07-20T00:54:40.991Z,18.85
2016-07-20T00:55:40.995Z,18.78
2016-07-20T00:56:40.994Z,18.73
2016-07-20T00:57:40.995Z,18.7
2016-07-20T00:58:40.998Z,18.74
2016-07-20T00:59:40.999Z,18.76
2016-07-20T01:00:41.004Z,18.66
2016-07-20T01:01:41.003Z,18.66
2016-07-20T01:02:41.007Z,18.76
2016-07-20T01:03:41.007Z,18.68
2016-07-20T01:04:41.007Z,18.78
2016-07-20T01:05:41.010Z,18.63
2016-07-20T01:06:41.006Z,18.67
2016-07-20T01:07:41.011Z,18.76
2016-07-20T01:08:41.015Z,18.7
2016-07-20T01:09:41.010Z,18.68
2016-07-20T01:10:41.027Z,18.64
2016-07-20T01:11:41.019Z,18.66
2016-07-20T01:12:41.023Z,18.64
2016-07-20T01:13:41.023Z,18.63
2016-07-20T01:14:41.024Z,18.58
2016-07-20T01:15:41.027Z,18.55
2016-07-20T01:16:41.028Z,18.49
2016-07-20T01:17:41.032Z,18.52
2016-07-20T01:18:40.311Z,18.49
2016-07-20T01:19:41.032Z,18.49
2016-07-20T01:20:41.035Z,18.51
2016-07-20T01:21:41.035Z,18.57
2016-07-20T01:22:41.036Z,18.51
2016-07-20T01:23:41.040Z,18.46
2016-07-20T01:24:41.040Z,18.45
2016-07-20T01:25:41.051Z,18.34
2016-07-20T01:26:41.044Z,18.41
2016-07-20T01:27:41.043Z,18.45
2016-07-20T01:28:41.068Z,18.34
2016-07-20T01:29:41.047Z,18.41
2016-07-20T01:30:41.051Z,18.33
2016-07-20T01:31:41.052Z,18.36
2016-07-20T01:32:41.051Z,18.41
2016-07-20T01:33:41.056Z,18.36
2016-07-20T01:34:41.055Z,18.31
2016-07-20T01:35:41.060Z,18.27
2016-07-20T01:36:41.060Z,18.23
2016-07-20T01:37:41.061Z,18.3
2016-07-20T01:38:41.064Z,18.27
2016-07-20T01:39:41.064Z,18.26
2016-07-20T01:40:40.348Z,18.16
2016-07-20T01:41:40.345Z,18.12
2016-07-20T01:42:41.068Z,18.12
2016-07-20T01:43:41.073Z,18.11
2016-07-20T01:44:41.077Z,18.13
2016-07-20T01:45:41.073Z,18.11
2016-07-20T01:46:41.076Z,18.12
2016-07-20T01:47:41.077Z,18.08
2016-07-20T01:48:41.080Z,18.11
2016-07-20T01:49:41.081Z,17.95
2016-07-20T01:50:41.081Z,18.05
2016-07-20T01:51:41.080Z,17.98
2016-07-20T01:52:41.086Z,17.94
2016-07-20T01:53:41.084Z,18.06
2016-07-20T01:54:40.377Z,18.03
2016-07-20T01:55:41.093Z,18.03
2016-07-20T01:56:41.093Z,17.97
2016-07-20T01:57:41.094Z,17.93
2016-07-20T01:58:41.090Z,17.9
2016-07-20T01:59:41.098Z,17.87
2016-07-20T02:00:41.093Z,17.84
2016-07-20T02:01:41.097Z,17.82
2016-07-20T02:02:41.102Z,17.87
2016-07-20T02:03:41.098Z,17.8
2016-07-20T02:04:41.105Z,17.88
2016-07-20T02:05:41.106Z,17.84
2016-07-20T02:06:41.109Z,17.75
2016-07-20T02:07:41.110Z,17.71
2016-07-20T02:08:41.109Z,17.71
2016-07-20T02:09:41.113Z,17.75
2016-07-20T02:10:41.114Z,17.71
2016-07-20T02:11:41.109Z,17.72
2016-07-20T02:12:41.118Z,17.63
2016-07-20T02:13:41.117Z,17.71
2016-07-20T02:14:41.113Z,17.56
2016-07-20T02:15:41.118Z,17.6
2016-07-20T02:16:41.121Z,17.56
2016-07-20T02:17:41.127Z,17.53
2016-07-20T02:18:41.125Z,17.54
2016-07-20T02:19:41.133Z,17.47
2016-07-20T02:20:41.131Z,17.41
2016-07-20T02:21:41.126Z,17.42
2016-07-20T02:22:41.131Z,17.46
2016-07-20T02:23:40.410Z,17.49
2016-07-20T02:24:41.133Z,17.42
2016-07-20T02:25:41.134Z,17.35
2016-07-20T02:26:41.138Z,17.35
2016-07-20T02:27:41.145Z,17.31
2016-07-20T02:28:41.142Z,17.35
2016-07-20T02:29:41.142Z,17.27
2016-07-20T02:30:41.142Z,17.31
2016-07-20T02:31:41.141Z,17.28
2016-07-20T02:32:41.146Z,17.19
2016-07-20T02:33:41.146Z,17.17
2016-07-20T02:34:41.146Z,17.14
2016-07-20T02:35:41.150Z,17.09
2016-07-20T02:36:41.150Z,17.19
2016-07-20T02:37:41.158Z,17.12
2016-07-20T02:38:41.163Z,17.19
2016-07-20T02:39:41.154Z,17.19
2016-07-20T02:40:41.159Z,17.19
2016-07-20T02:41:41.157Z,17.16
2016-07-20T02:42:41.154Z,17.17
2016-07-20T02:43:41.163Z,17.13
2016-07-20T02:44:41.167Z,17.13
2016-07-20T02:45:41.162Z,17.13
2016-07-20T02:46:41.167Z,17.09
2016-07-20T02:47:41.166Z,17.04
2016-07-20T02:48:41.171Z,17.05
2016-07-20T02:49:41.172Z,16.98
2016-07-20T02:50:41.170Z,17.1
2016-07-20T02:51:41.175Z,17.1
2016-07-20T02:52:41.175Z,17.07
2016-07-20T02:53:41.186Z,16.91
2016-07-20T02:54:41.179Z,16.95
2016-07-20T02:55:41.174Z,16.91
2016-07-20T02:56:41.178Z,16.89
2016-07-20T02:57:41.178Z,16.89
2016-07-20T02:58:41.196Z,16.86
2016-07-20T02:59:41.182Z,16.84
2016-07-20T03:00:41.184Z,16.87
2016-07-20T03:01:41.187Z,16.84
2016-07-20T03:02:41.202Z,16.84
2016-07-20T03:03:41.191Z,16.86
2016-07-20T03:04:41.191Z,16.82
2016-07-20T03:05:41.192Z,16.8
2016-07-20T03:06:41.195Z,16.84
2016-07-20T03:07:41.195Z,16.84
2016-07-20T03:08:41.196Z,16.83
2016-07-20T03:09:41.200Z,16.92
2016-07-20T03:10:41.200Z,16.84
2016-07-20T03:11:41.199Z,16.74
2016-07-20T03:12:41.199Z,16.87
2016-07-20T03:13:41.204Z,16.92
2016-07-20T03:14:41.203Z,16.89
2016-07-20T03:15:41.204Z,16.8
2016-07-20T03:16:40.488Z,16.84
2016-07-20T03:17:41.207Z,16.79
2016-07-20T03:18:41.207Z,16.8
2016-07-20T03:19:41.215Z,16.74
2016-07-20T03:20:41.211Z,16.79
2016-07-20T03:21:41.216Z,16.77
2016-07-20T03:22:41.215Z,16.73
2016-07-20T03:23:41.217Z,16.73
2016-07-20T03:24:41.216Z,16.76
2016-07-20T03:25:41.220Z,16.74
2016-07-20T03:26:41.220Z,16.66
2016-07-20T03:27:41.219Z,16.72
2016-07-20T03:28:41.225Z,16.72
2016-07-20T03:29:41.223Z,16.77
2016-07-20T03:30:41.224Z,16.76
2016-07-20T03:31:41.228Z,16.73
2016-07-20T03:32:41.228Z,16.72
2016-07-20T03:33:41.229Z,16.68
2016-07-20T03:34:41.232Z,16.73
2016-07-20T03:35:41.232Z,16.68
2016-07-20T03:36:40.508Z,16.73
2016-07-20T03:37:41.245Z,16.69
2016-07-20T03:38:41.236Z,16.73
2016-07-20T03:39:41.237Z,16.66
2016-07-20T03:40:41.241Z,16.66
2016-07-20T03:41:41.240Z,16.76
2016-07-20T03:42:41.241Z,16.73
2016-07-20T03:43:41.244Z,16.72
2016-07-20T03:44:41.244Z,16.73
2016-07-20T03:45:41.241Z,16.66
2016-07-20T03:46:41.249Z,16.69
2016-07-20T03:47:41.252Z,16.72
2016-07-20T03:48:39.805Z,16.76
2016-07-20T03:49:41.253Z,16.73
2016-07-20T03:50:41.253Z,16.69
2016-07-20T03:51:41.253Z,16.77
2016-07-20T03:52:41.249Z,16.77
2016-07-20T03:53:41.257Z,16.84
2016-07-20T03:54:41.256Z,16.82
2016-07-20T03:55:41.261Z,16.8
2016-07-20T03:56:41.262Z,16.77
2016-07-20T03:57:41.259Z,16.77
2016-07-20T03:58:41.261Z,16.89
2016-07-20T03:59:41.261Z,16.79
2016-07-20T04:00:41.265Z,16.83
2016-07-20T04:01:41.265Z,16.82
2016-07-20T04:02:41.265Z,16.82
2016-07-20T04:03:41.269Z,16.86
2016-07-20T04:04:41.269Z,16.89
2016-07-20T04:05:41.272Z,16.95
2016-07-20T04:06:41.273Z,17.1
2016-07-20T04:07:41.281Z,17.13
2016-07-20T04:08:41.269Z,17.34
2016-07-20T04:09:41.274Z,17.63
2016-07-20T04:10:41.277Z,17.94
2016-07-20T04:11:41.278Z,18.09
2016-07-20T04:12:41.277Z,18.33
2016-07-20T04:13:41.285Z,18.7
2016-07-20T04:14:41.281Z,18.97
2016-07-20T04:15:41.277Z,19.45
2016-07-20T04:16:41.285Z,19.66
2016-07-20T04:17:41.282Z,20.02
2016-07-20T04:18:41.285Z,20.29
2016-07-20T04:19:41.289Z,20.6
2016-07-20T04:20:41.290Z,20.86
2016-07-20T04:21:41.289Z,21.14
2016-07-20T04:22:41.285Z,21.47
2016-07-20T04:23:41.294Z,21.58
2016-07-20T04:24:41.290Z,21.84
2016-07-20T04:25:41.289Z,22.07
2016-07-20T04:26:41.297Z,22.34
2016-07-20T04:27:41.297Z,22.49
2016-07-20T04:28:41.296Z,22.58
2016-07-20T04:29:41.301Z,22.71
2016-07-20T04:30:41.301Z,22.73
2016-07-20T04:31:41.301Z,22.8
2016-07-20T04:32:41.302Z,23.04
2016-07-20T04:33:40.586Z,23.02
2016-07-20T04:34:41.306Z,23.16
2016-07-20T04:35:41.306Z,23.29
2016-07-20T04:36:41.319Z,23.54
2016-07-20T04:37:40.589Z,23.71
2016-07-20T04:38:41.310Z,23.92
2016-07-20T04:39:41.310Z,24.1
2016-07-20T04:40:41.314Z,24.26
2016-07-20T04:41:41.323Z,24.5
2016-07-20T04:42:41.313Z,24.58
2016-07-20T04:43:41.318Z,24.81
2016-07-20T04:44:41.318Z,25.06
2016-07-20T04:45:41.321Z,25.29
2016-07-20T04:46:41.335Z,25.43
2016-07-20T04:47:41.322Z,25.78
2016-07-20T04:48:41.323Z,25.96
2016-07-20T04:49:41.325Z,26.08
2016-07-20T04:50:41.327Z,26.29
2016-07-20T04:51:41.326Z,26.45
2016-07-20T04:52:41.331Z,26.61
2016-07-20T04:53:41.338Z,26.55
2016-07-20T04:54:41.330Z,26.56
2016-07-20T04:55:41.335Z,26.63
2016-07-20T04:56:41.334Z,26.68
2016-07-20T04:57:40.610Z,27.03
2016-07-20T04:58:41.338Z,27.37
2016-07-20T04:59:41.338Z,27.55
2016-07-20T05:00:41.343Z,27.81
2016-07-20T05:01:41.343Z,28.09
2016-07-20T05:02:40.623Z,28.2
2016-07-20T05:03:41.347Z,28.38
2016-07-20T05:04:41.346Z,28.49
2016-07-20T05:05:41.347Z,28.78
2016-07-20T05:06:41.351Z,29
2016-07-20T05:07:41.360Z,29.16
2016-07-20T05:08:41.351Z,29.35
2016-07-20T05:09:41.359Z,29.73
2016-07-20T05:10:41.355Z,29.99
2016-07-20T05:11:41.355Z,30.31
2016-07-20T05:12:41.359Z,30.54
2016-07-20T05:13:41.359Z,30.62
2016-07-20T05:14:41.364Z,30.73
2016-07-20T05:15:41.364Z,30.86
2016-07-20T05:16:41.366Z,30.99
2016-07-20T05:17:41.368Z,31.23
2016-07-20T05:18:40.643Z,31.62
2016-07-20T05:19:41.371Z,31.87
2016-07-20T05:20:41.371Z,31.89
2016-07-20T05:21:41.371Z,32.12
2016-07-20T05:22:41.375Z,32.3
2016-07-20T05:23:41.376Z,32.46
2016-07-20T05:24:41.374Z,32.63
2016-07-20T05:25:41.379Z,32.79
2016-07-20T05:26:41.379Z,32.98
2016-07-20T05:27:41.383Z,33.19
2016-07-20T05:28:41.383Z,33.32
2016-07-20T05:29:41.388Z,33.57
2016-07-20T05:30:41.388Z,33.82
2016-07-20T05:31:41.388Z,33.89
2016-07-20T05:32:41.404Z,34.18
2016-07-20T05:33:41.391Z,34.37
2016-07-20T05:34:41.401Z,34.46
2016-07-20T05:35:41.396Z,34.75
2016-07-20T05:36:41.401Z,34.73
2016-07-20T05:37:41.399Z,34.78
2016-07-20T05:38:41.399Z,34.89
2016-07-20T05:39:41.403Z,35.04
2016-07-20T05:40:41.403Z,35.16
2016-07-20T05:41:41.407Z,35.01
2016-07-20T05:42:41.408Z,34.96
2016-07-20T05:43:41.412Z,35.13
2016-07-20T05:44:41.413Z,35.16
2016-07-20T05:45:41.411Z,35.07
2016-07-20T05:46:40.696Z,34.94
2016-07-20T05:47:41.420Z,34.78
2016-07-20T05:48:41.420Z,34.65
2016-07-20T05:49:41.436Z,34.6
2016-07-20T05:50:41.424Z,34.5
2016-07-20T05:51:41.420Z,34.47
2016-07-20T05:52:41.429Z,34.46
2016-07-20T05:53:41.429Z,34.63
2016-07-20T05:54:41.428Z,35.01
2016-07-20T05:55:41.433Z,35.01
2016-07-20T05:56:41.437Z,35.1
2016-07-20T05:57:41.441Z,35.18
2016-07-20T05:58:41.441Z,35.12
2016-07-20T05:59:41.437Z,35.13
2016-07-20T06:00:41.445Z,35.27
2016-07-20T06:01:41.445Z,35.72
2016-07-20T06:02:41.448Z,35.93
2016-07-20T06:03:41.449Z,36.43
2016-07-20T06:04:41.453Z,36.92
2016-07-20T06:05:41.449Z,37.34
2016-07-20T06:06:41.453Z,37.58
2016-07-20T06:07:41.457Z,37.68
2016-07-20T06:08:41.462Z,37.61
2016-07-20T06:09:41.462Z,37.61
2016-07-20T06:10:41.464Z,37.78
2016-07-20T06:11:41.470Z,37.85
2016-07-20T06:12:41.474Z,37.92
2016-07-20T06:13:41.469Z,37.94
2016-07-20T06:14:40.753Z,37.94
2016-07-20T06:15:41.474Z,37.92
2016-07-20T06:16:41.477Z,37.82
2016-07-20T06:17:41.477Z,37.71
2016-07-20T06:18:41.486Z,37.68
2016-07-20T06:19:41.482Z,37.73
2016-07-20T06:20:41.480Z,37.83
2016-07-20T06:21:41.486Z,38.09
2016-07-20T06:22:41.522Z,38.16
2016-07-20T06:23:40.768Z,38.09
2016-07-20T06:24:41.494Z,38.17
2016-07-20T06:25:41.497Z,38.34
2016-07-20T06:26:41.492Z,38.48
2016-07-20T06:27:40.781Z,38.58
2016-07-20T06:28:41.501Z,38.66
2016-07-20T06:29:41.505Z,38.6
2016-07-20T06:30:41.506Z,38.44
2016-07-20T06:31:40.789Z,38.2
2016-07-20T06:32:41.510Z,37.98
2016-07-20T06:33:41.514Z,37.79
2016-07-20T06:34:41.517Z,37.75
2016-07-20T06:35:40.798Z,37.73
2016-07-20T06:36:41.518Z,37.63
2016-07-20T06:37:41.519Z,37.61
2016-07-20T06:38:41.534Z,37.91
2016-07-20T06:39:41.526Z,37.75
2016-07-20T06:40:41.530Z,37.94
2016-07-20T06:41:41.530Z,38.17
2016-07-20T06:42:41.534Z,38.35
2016-07-20T06:43:41.534Z,38.39
2016-07-20T06:44:41.538Z,38.41
2016-07-20T06:45:41.542Z,38.56
2016-07-20T06:46:41.542Z,38.84
2016-07-20T06:47:41.546Z,39.05
2016-07-20T06:48:41.547Z,39.22
2016-07-20T06:49:41.549Z,39.6
2016-07-20T06:50:41.902Z,39.94
2016-07-20T06:51:41.555Z,40.1
2016-07-20T06:52:41.553Z,40.02
2016-07-20T06:53:41.559Z,40.42
2016-07-20T06:54:41.570Z,40.62
2016-07-20T06:55:41.563Z,40.83
2016-07-20T06:56:40.847Z,41.04
2016-07-20T06:57:41.567Z,41.03
2016-07-20T06:58:41.570Z,41.17
2016-07-20T06:59:40.862Z,41.3
2016-07-20T07:00:41.574Z,41.29
2016-07-20T07:01:41.587Z,41.08
2016-07-20T07:02:41.579Z,40.9
2016-07-20T07:03:41.583Z,40.92
2016-07-20T07:04:41.587Z,41
2016-07-20T07:05:41.587Z,41.37
2016-07-20T07:06:41.591Z,41.65
2016-07-20T07:07:41.594Z,42.02
2016-07-20T07:08:41.595Z,42.15
2016-07-20T07:09:41.599Z,42.33
2016-07-20T07:10:41.599Z,42.39
2016-07-20T07:11:41.603Z,42.62
2016-07-20T07:12:41.603Z,42.7
2016-07-20T07:13:41.606Z,42.99
2016-07-20T07:14:41.611Z,43.09
2016-07-20T07:15:41.607Z,43.03
2016-07-20T07:16:41.616Z,43.03
2016-07-20T07:17:41.615Z,43.08
2016-07-20T07:18:41.619Z,43.22
2016-07-20T07:19:41.624Z,43.03
2016-07-20T07:20:41.623Z,42.84
2016-07-20T07:21:41.628Z,42.75
2016-07-20T07:22:41.632Z,42.66
2016-07-20T07:23:41.631Z,42.62
2016-07-20T07:24:41.636Z,42.75
2016-07-20T07:25:41.635Z,42.93
2016-07-20T07:26:41.640Z,43.12
2016-07-20T07:27:41.644Z,43.16
2016-07-20T07:28:41.643Z,43.24
2016-07-20T07:29:41.648Z,43.39
2016-07-20T07:30:41.648Z,43.61
2016-07-20T07:31:41.652Z,43.87
2016-07-20T07:32:41.656Z,44.07
2016-07-20T07:33:41.656Z,44.28
2016-07-20T07:34:41.665Z,44.55
2016-07-20T07:35:41.668Z,44.57
2016-07-20T07:36:40.945Z,44.53
2016-07-20T07:37:41.672Z,44.55
2016-07-20T07:38:41.668Z,44.41
2016-07-20T07:39:41.673Z,44.29
2016-07-20T07:40:41.672Z,44.28
2016-07-20T07:41:41.677Z,44.35
2016-07-20T07:42:42.027Z,44.44
2016-07-20T07:43:41.685Z,44.55
2016-07-20T07:44:41.685Z,44.59
2016-07-20T07:45:41.688Z,44.89
2016-07-20T07:46:41.693Z,45.1
2016-07-20T07:47:41.693Z,45.33
2016-07-20T07:48:41.697Z,45.52
2016-07-20T07:49:41.697Z,45.76
2016-07-20T07:50:41.700Z,45.86
2016-07-20T07:51:41.821Z,46
2016-07-20T07:52:41.704Z,45.88
2016-07-20T07:53:41.709Z,45.43
2016-07-20T07:54:41.713Z,45.01
2016-07-20T07:55:41.717Z,44.91
2016-07-20T07:56:41.721Z,44.8
2016-07-20T07:57:41.716Z,44.82
2016-07-20T07:58:41.721Z,44.91
2016-07-20T07:59:41.724Z,44.94
2016-07-20T08:00:41.728Z,45.16
2016-07-20T08:01:41.728Z,45.26
2016-07-20T08:02:41.732Z,45.01
2016-07-20T08:03:41.736Z,44.82
2016-07-20T08:04:41.745Z,44.82
2016-07-20T08:05:41.740Z,45.02
2016-07-20T08:06:41.745Z,45.11
2016-07-20T08:07:41.745Z,45.16
2016-07-20T08:08:41.748Z,44.62
2016-07-20T08:09:41.753Z,44.11
2016-07-20T08:10:41.033Z,43.75
2016-07-20T08:11:41.756Z,43.41
2016-07-20T08:12:41.042Z,43.09
2016-07-20T08:13:41.757Z,42.96
2016-07-20T08:14:41.765Z,43
2016-07-20T08:15:41.769Z,43.12
2016-07-20T08:16:41.769Z,43.28
2016-07-20T08:17:41.773Z,43.43
2016-07-20T08:18:41.777Z,43.44
2016-07-20T08:19:41.781Z,43.53
2016-07-20T08:20:41.783Z,43.85
2016-07-20T08:21:41.784Z,44.1
2016-07-20T08:22:41.789Z,44.25
2016-07-20T08:23:41.793Z,44.42
2016-07-20T08:24:41.793Z,44.79
2016-07-20T08:25:41.797Z,45.04
2016-07-20T08:26:41.801Z,44.64
2016-07-20T08:27:41.801Z,44.1
2016-07-20T08:28:41.805Z,43.54
2016-07-20T08:30:41.809Z,43.19
2016-07-20T08:31:41.829Z,42.8
2016-07-20T08:32:41.817Z,42.77
2016-07-20T08:33:41.817Z,42.84
2016-07-20T08:34:42.170Z,42.75
2016-07-20T08:35:41.825Z,42.7
2016-07-20T08:36:41.830Z,42.74
2016-07-20T08:37:41.838Z,42.87
2016-07-20T08:38:41.836Z,43.18
2016-07-20T08:39:41.838Z,43.25
2016-07-20T08:40:41.838Z,43.54
2016-07-20T08:41:41.842Z,43.87
2016-07-20T08:42:41.846Z,44.23
2016-07-20T08:43:41.846Z,44.5
2016-07-20T08:44:41.850Z,44.67
2016-07-20T08:45:41.854Z,44.89
2016-07-20T08:46:41.863Z,44.94
2016-07-20T08:47:41.860Z,44.98
2016-07-20T08:48:41.862Z,44.96
2016-07-20T08:49:41.862Z,44.83
2016-07-20T08:50:41.869Z,44.82
2016-07-20T08:51:41.870Z,44.95
2016-07-20T08:52:41.875Z,45.21
2016-07-20T08:53:41.878Z,45.35
2016-07-20T08:54:41.878Z,45.36
2016-07-20T08:55:41.883Z,45.39
2016-07-20T08:56:41.886Z,45.4
2016-07-20T08:57:41.891Z,45.24
2016-07-20T08:58:41.899Z,45.01
2016-07-20T08:59:41.894Z,44.62
2016-07-20T09:00:41.898Z,44.28
2016-07-20T09:01:41.903Z,44.06
2016-07-20T09:02:41.902Z,44.02
2016-07-20T09:03:41.906Z,43.76
2016-07-20T09:04:41.927Z,43.57
2016-07-20T09:05:41.910Z,43.43
2016-07-20T09:06:41.914Z,43.29
2016-07-20T09:07:41.195Z,43.28
2016-07-20T09:08:41.922Z,43.38
2016-07-20T09:09:41.923Z,43.47
2016-07-20T09:10:41.923Z,43.46
2016-07-20T09:11:41.933Z,43.47
2016-07-20T09:12:41.935Z,43.5
2016-07-20T09:13:41.944Z,43.58
2016-07-20T09:14:41.940Z,43.66
2016-07-20T09:15:41.943Z,43.77
2016-07-20T09:16:41.943Z,43.77
2016-07-20T09:17:41.947Z,43.92
2016-07-20T09:18:41.951Z,43.77
2016-07-20T09:19:41.955Z,43.77
2016-07-20T09:20:41.955Z,43.91
2016-07-20T09:21:41.960Z,43.89
2016-07-20T09:22:41.963Z,43.89
2016-07-20T09:23:42.040Z,43.91
2016-07-20T09:24:41.967Z,43.89
2016-07-20T09:25:41.971Z,43.76
2016-07-20T09:26:41.976Z,43.66
2016-07-20T09:27:41.975Z,43.62
2016-07-20T09:28:41.980Z,43.44
2016-07-20T09:29:41.984Z,43.36
2016-07-20T09:30:41.988Z,43.28
2016-07-20T09:31:41.988Z,43.18
2016-07-20T09:32:41.996Z,43.11
2016-07-20T09:33:41.995Z,43.09
2016-07-20T09:34:42.000Z,42.97
2016-07-20T09:35:42.003Z,42.89
2016-07-20T09:36:42.004Z,42.78
2016-07-20T09:37:42.008Z,42.55
2016-07-20T09:38:42.006Z,42.4
2016-07-20T09:39:42.012Z,42.22
2016-07-20T09:40:42.020Z,42.2
2016-07-20T09:41:42.019Z,42.09
2016-07-20T09:42:42.025Z,42.14
2016-07-20T09:43:42.024Z,42.1
2016-07-20T09:44:42.029Z,41.96
2016-07-20T09:45:42.049Z,41.65
2016-07-20T09:46:42.037Z,41.36
2016-07-20T09:47:42.040Z,41
2016-07-20T09:48:42.041Z,40.69
2016-07-20T09:49:42.045Z,40.24
2016-07-20T09:50:42.048Z,39.97
2016-07-20T09:51:42.053Z,39.52
2016-07-20T09:52:42.052Z,39.04
2016-07-20T09:53:42.057Z,38.47
2016-07-20T09:54:42.065Z,37.95
2016-07-20T09:55:42.061Z,37.48
2016-07-20T09:56:42.065Z,37.15
2016-07-20T09:57:42.069Z,36.78
2016-07-20T09:58:42.073Z,36.57
2016-07-20T09:59:42.085Z,36.25
2016-07-20T10:00:42.089Z,36.03
2016-07-20T10:01:42.081Z,35.76
2016-07-20T10:02:42.085Z,35.63
2016-07-20T10:03:42.090Z,35.52
2016-07-20T10:04:42.090Z,35.26
2016-07-20T10:05:42.093Z,35.18
2016-07-20T10:06:42.097Z,35.04
2016-07-20T10:07:42.101Z,34.91
2016-07-20T10:08:42.106Z,34.7
2016-07-20T10:09:42.105Z,34.63
2016-07-20T10:10:42.109Z,34.41
2016-07-20T10:11:42.110Z,34.02
2016-07-20T10:12:42.113Z,33.7
2016-07-20T10:13:42.118Z,33.44
2016-07-20T10:14:42.121Z,33.28
2016-07-20T10:15:42.126Z,33.2
2016-07-20T10:16:42.130Z,33.19
2016-07-20T10:17:42.134Z,33.15
2016-07-20T10:18:42.141Z,33.16
2016-07-20T10:19:42.138Z,33.28
2016-07-20T10:20:42.142Z,33.28
2016-07-20T10:21:42.145Z,33.31
2016-07-20T10:22:42.145Z,33.32
2016-07-20T10:23:42.150Z,33.29
2016-07-20T10:24:42.153Z,33.32
2016-07-20T10:25:42.157Z,33.28
2016-07-20T10:26:42.162Z,33.2
2016-07-20T10:27:42.161Z,33.13
2016-07-20T10:28:42.170Z,33.13
2016-07-20T10:29:42.167Z,33.09
2016-07-20T10:30:42.170Z,33.16
2016-07-20T10:31:42.178Z,33.22
2016-07-20T10:32:42.178Z,33.16
2016-07-20T10:33:42.182Z,33.15
2016-07-20T10:34:42.182Z,33.12
2016-07-20T10:35:42.182Z,33.01
2016-07-20T10:36:42.190Z,32.9
2016-07-20T10:37:42.205Z,32.88
2016-07-20T10:38:42.194Z,32.83
2016-07-20T10:39:42.202Z,32.81
2016-07-20T10:40:42.202Z,32.82
2016-07-20T10:41:42.259Z,32.82
2016-07-20T10:42:42.211Z,32.85
2016-07-20T10:43:42.211Z,32.81
2016-07-20T10:44:42.214Z,32.82
2016-07-20T10:45:42.218Z,32.9
2016-07-20T10:46:42.223Z,32.83
2016-07-20T10:47:42.227Z,32.91
2016-07-20T10:48:42.227Z,32.91
2016-07-20T10:49:41.510Z,32.86
2016-07-20T10:50:42.240Z,32.9
2016-07-20T10:51:42.234Z,32.93
2016-07-20T10:52:42.238Z,32.93
2016-07-20T10:53:41.530Z,32.97
2016-07-20T10:54:42.251Z,32.86
2016-07-20T10:55:42.247Z,32.88
2016-07-20T10:56:42.251Z,32.71
2016-07-20T10:57:42.254Z,32.66
2016-07-20T10:58:42.259Z,32.56
2016-07-20T10:59:42.262Z,32.46
2016-07-20T11:00:42.263Z,32.31
2016-07-20T11:01:42.267Z,32.34
2016-07-20T11:02:42.271Z,32.08
2016-07-20T11:03:42.275Z,31.86
2016-07-20T11:04:42.280Z,31.57
2016-07-20T11:05:42.279Z,31.51
2016-07-20T11:06:42.467Z,31.44
2016-07-20T11:07:42.299Z,31.44
2016-07-20T11:08:42.291Z,31.37
2016-07-20T11:09:42.292Z,31.37
2016-07-20T11:10:42.296Z,31.3
2016-07-20T11:11:42.299Z,31.29
2016-07-20T11:12:42.307Z,31.25
2016-07-20T11:13:42.304Z,31.26
2016-07-20T11:14:42.311Z,31.11
2016-07-20T11:15:42.311Z,31.07
2016-07-20T11:16:42.315Z,30.99
2016-07-20T11:17:42.315Z,30.95
2016-07-20T11:18:42.319Z,30.95
2016-07-20T11:19:42.323Z,31
2016-07-20T11:20:42.328Z,30.93
2016-07-20T11:21:42.327Z,30.89
2016-07-20T11:22:42.329Z,30.85
2016-07-20T11:23:42.335Z,30.95
2016-07-20T11:24:42.340Z,30.98
2016-07-20T11:25:42.344Z,30.88
2016-07-20T11:26:42.346Z,30.92
2016-07-20T11:27:42.347Z,31
2016-07-20T11:28:42.351Z,30.96
2016-07-20T11:29:42.355Z,31.08
2016-07-20T11:30:42.355Z,31.22
2016-07-20T11:31:42.351Z,31.32
2016-07-20T11:32:42.364Z,31.42
2016-07-20T11:33:42.368Z,31.55
2016-07-20T11:34:42.372Z,31.64
2016-07-20T11:35:42.372Z,31.67
2016-07-20T11:36:42.375Z,31.73
2016-07-20T11:37:42.392Z,31.82
2016-07-20T11:38:42.384Z,31.86
2016-07-20T11:39:42.383Z,31.85
2016-07-20T11:40:42.388Z,31.86
2016-07-20T11:41:42.391Z,31.81
2016-07-20T11:42:42.396Z,31.87
2016-07-20T11:43:42.395Z,31.81
2016-07-20T11:44:42.401Z,31.85
2016-07-20T11:45:42.404Z,31.81
2016-07-20T11:46:42.408Z,31.86
2016-07-20T11:47:42.412Z,31.93
2016-07-20T11:48:42.413Z,32.04
2016-07-20T11:49:42.416Z,32.07
2016-07-20T11:50:42.420Z,32.12
2016-07-20T11:51:42.424Z,32.11
2016-07-20T11:52:42.424Z,32.24
2016-07-20T11:53:42.428Z,32.27
2016-07-20T11:54:42.433Z,32.29
2016-07-20T11:55:42.445Z,32.23
2016-07-20T11:56:42.432Z,32.23
2016-07-20T11:57:42.440Z,32.24
2016-07-20T11:58:42.444Z,32.22
2016-07-20T11:59:42.448Z,32.24
2016-07-20T12:00:42.453Z,32.29
2016-07-20T12:01:42.453Z,32.31
2016-07-20T12:02:42.456Z,32.26
2016-07-20T12:03:42.461Z,32.24
2016-07-20T12:04:42.725Z,32.35
2016-07-20T12:05:42.465Z,32.37
2016-07-20T12:06:41.744Z,32.38
2016-07-20T12:07:42.468Z,32.41
2016-07-20T12:08:42.476Z,32.37
2016-07-20T12:09:42.472Z,32.29
2016-07-20T12:10:42.480Z,32.27
2016-07-20T12:11:42.485Z,32.29
2016-07-20T12:12:42.488Z,32.3
2016-07-20T12:13:42.490Z,32.38
2016-07-20T12:14:42.501Z,32.3
2016-07-20T12:15:42.497Z,32.35
2016-07-20T12:16:42.501Z,32.35
2016-07-20T12:17:42.741Z,32.3
2016-07-20T12:18:42.505Z,32.34
2016-07-20T12:19:42.510Z,32.44
2016-07-20T12:20:42.509Z,32.3
2016-07-20T12:21:42.517Z,32.42
2016-07-20T12:22:42.517Z,32.44
2016-07-20T12:23:42.525Z,32.45
2016-07-20T12:24:42.536Z,32.37
2016-07-20T12:25:42.529Z,32.35
2016-07-20T12:26:42.545Z,32.44
2016-07-20T12:27:42.529Z,32.42
2016-07-20T12:28:42.541Z,32.38
2016-07-20T12:29:42.541Z,32.41
2016-07-20T12:30:42.541Z,32.42
2016-07-20T12:31:42.545Z,32.51
2016-07-20T12:32:42.549Z,32.44
2016-07-20T12:33:42.554Z,32.41
2016-07-20T12:34:42.553Z,32.41
2016-07-20T12:35:42.557Z,32.41
2016-07-20T12:36:42.566Z,32.3
2016-07-20T12:37:42.566Z,32.48
2016-07-20T12:38:42.564Z,32.29
2016-07-20T12:39:42.570Z,32.31
2016-07-20T12:40:42.573Z,32.34
2016-07-20T12:41:42.578Z,32.26
2016-07-20T12:42:42.581Z,32.16
2016-07-20T12:43:42.582Z,32.16
2016-07-20T12:44:42.586Z,32.12
2016-07-20T12:45:42.590Z,32.08
2016-07-20T12:46:42.589Z,32.04
2016-07-20T12:47:42.594Z,32.12
2016-07-20T12:48:42.598Z,32.11
2016-07-20T12:49:42.602Z,32.17
2016-07-20T12:50:42.605Z,32.22
2016-07-20T12:51:42.607Z,32.2
2016-07-20T12:52:42.609Z,32.22
2016-07-20T12:53:42.615Z,32.3
2016-07-20T12:54:42.618Z,32.2
2016-07-20T12:55:42.622Z,32.24
2016-07-20T12:56:42.622Z,32.27
2016-07-20T12:57:42.625Z,32.23
2016-07-20T12:58:42.630Z,32.34